Time;durP1;ratioP1;P1;durP2;ratioP2;P2;SDS_P1;SDS_P2;PMS_P1;PMS_P2;Temp;Humidity;BMP_temperature;BMP_pressure;BME280_temperature;BME280_humidity;BME280_pressure;Samples;Min_cycle;Max_cycle;Signal;HPM_P1;HPM_P2
2022/10/07 00:02:13;;;;;;;5.20;3.63;;;;;;;12.02;100.00;14222.22;5136635;27;20649;-65
2022/10/07 00:04:45;;;;;;;3.73;3.53;;;;;;;11.93;100.00;14541.16;5118682;27;20179;-65
2022/10/07 00:07:13;;;;;;;3.67;3.37;;;;;;;11.71;100.00;11000.19;5136176;27;20189;-64
2022/10/07 00:09:40;;;;;;;4.00;3.73;;;;;;;11.76;100.00;11643.69;5117901;27;20206;-65
2022/10/07 00:12:07;;;;;;;4.10;3.90;;;;;;;11.99;100.00;12613.56;5136348;27;20533;-65
2022/10/07 00:14:34;;;;;;;4.17;3.97;;;;;;;12.05;100.00;12936.53;5136356;27;20190;-64
2022/10/07 00:17:01;;;;;;;4.33;4.00;;;;;;;12.09;100.00;13580.91;5136496;27;20287;-65
2022/10/07 00:19:28;;;;;;;3.93;3.80;;;;;;;12.20;100.00;13583.91;5136086;27;20230;-64
2022/10/07 00:21:56;;;;;;;3.47;3.23;;;;;;;12.29;100.00;14873.44;5136406;27;20190;-64
2022/10/07 00:24:23;;;;;;;3.70;3.37;;;;;;;12.42;100.00;17131.34;5136292;27;20262;-65
2022/10/07 00:26:50;;;;;;;4.33;3.30;;;;;;;12.46;100.00;20678.53;5135741;27;20270;-65
2022/10/07 00:29:17;;;;;;;3.30;3.20;;;;;;;12.43;100.00;20999.69;5136093;27;20192;-64
2022/10/07 00:31:44;;;;;;;3.40;3.20;;;;;;;12.47;100.00;21001.25;5136793;27;20246;-64
2022/10/07 00:34:12;;;;;;;4.50;3.47;;;;;;;12.35;100.00;22287.09;5117833;27;20273;-65
2022/10/07 00:36:39;;;;;;;5.50;3.17;;;;;;;12.22;100.00;22604.22;5135932;27;20728;-64
2022/10/07 00:39:10;;;;;;;3.87;3.47;;;;;;;12.23;100.00;22282.09;5135774;27;20186;-65
2022/10/07 00:41:39;;;;;;;3.97;3.03;;;;;;;12.32;100.00;20673.25;5135180;27;20187;-64
2022/10/07 00:44:40;;;;;;;4.40;4.20;;;;;;;12.32;100.00;22285.84;5135167;27;20191;-65
2022/10/07 00:47:13;;;;;;;4.27;4.07;;;;;;;12.36;100.00;23900.97;5051880;28;20193;-64
2022/10/07 00:49:45;;;;;;;15.80;4.00;;;;;;;12.27;100.00;22928.97;5051949;28;20232;-64
2022/10/07 00:52:13;;;;;;;5.07;3.80;;;;;;;12.27;100.00;21316.19;5051848;28;20203;-65
2022/10/07 00:54:41;;;;;;;5.40;3.60;;;;;;;12.21;100.00;20668.97;5052238;28;20242;-65
2022/10/07 00:57:09;;;;;;;4.13;3.93;;;;;;;12.10;100.00;18731.31;5051694;28;20680;-64
2022/10/07 00:59:38;;;;;;;4.17;3.43;;;;;;;12.19;100.00;19056.75;5051033;28;20207;-65
2022/10/07 01:02:06;;;;;;;4.20;3.47;;;;;;;12.24;100.00;18091.81;5051910;28;20333;-66
2022/10/07 01:04:34;;;;;;;4.40;4.00;;;;;;;12.16;100.00;18733.28;5051730;28;20197;-63
2022/10/07 01:07:01;;;;;;;4.30;4.10;;;;;;;12.21;100.00;19057.47;5051982;28;20632;-65
2022/10/07 01:09:28;;;;;;;4.70;4.27;;;;;;;12.08;100.00;19374.72;5051772;28;20189;-65
2022/10/07 01:12:02;;;;;;;4.30;4.10;;;;;;;11.91;100.00;17114.72;5052045;28;20201;-64
2022/10/07 01:14:44;;;;;;;4.47;4.13;;;;;;;12.02;100.00;15830.72;5051840;28;20196;-64
2022/10/07 01:17:20;;;;;;;4.50;4.30;;;;;;;11.93;100.00;15506.34;5065014;27;20664;-65
2022/10/07 01:20:21;;;;;;;5.37;4.77;;;;;;;12.09;100.00;15833.06;5112918;28;20231;-64
2022/10/07 01:23:00;;;;;;;4.80;4.30;;;;;;;12.10;100.00;16799.06;5087434;28;20222;-65
2022/10/07 01:25:37;;;;;;;4.40;4.00;;;;;;;11.96;100.00;17116.22;5113918;28;20188;-64
2022/10/07 01:28:09;;;;;;;4.10;3.90;;;;;;;11.95;100.00;18081.72;5114381;28;20183;-64
2022/10/07 01:30:41;;;;;;;4.50;4.13;;;;;;;11.70;100.00;13248.94;5113717;28;20190;-65
2022/10/07 01:33:14;;;;;;;5.10;4.07;;;;;;;11.67;100.00;10999.13;5114015;28;20245;-64
2022/10/07 01:35:45;;;;;;;9.20;4.70;;;;;;;11.49;100.00;8427.56;5114135;28;20187;-65
2022/10/07 01:38:16;;;;;;;5.40;5.10;;;;;;;11.54;100.00;6824.69;5113898;28;20663;-64
2022/10/07 01:40:48;;;;;;;13.27;7.60;;;;;;;11.63;100.00;5222.81;5113622;28;20240;-65
2022/10/07 01:43:20;;;;;;;8.53;7.93;;;;;;;11.61;100.00;1378.03;5113684;28;20216;-64
2022/10/07 01:45:47;;;;;;;16.27;8.50;;;;;;;11.54;100.00;-2142.28;5113723;28;20187;-65
2022/10/07 01:48:14;;;;;;;9.97;8.00;;;;;;;11.52;100.00;-4380.16;5113504;28;20244;-64
2022/10/07 01:50:42;;;;;;;7.70;6.67;;;;;;;11.17;100.00;-5018.22;5113992;28;20630;-64
2022/10/07 01:53:25;;;;;;;7.37;6.10;;;;;;;10.96;100.00;-6294.28;5113743;28;20183;-65
2022/10/07 01:56:05;;;;;;;13.73;6.90;;;;;;;11.22;100.00;-7572.28;5113668;28;20198;-65
2022/10/07 01:58:49;;;;;;;7.97;7.57;;;;;;;11.29;100.00;-8211.06;5113647;28;20241;-64
2022/10/07 02:01:22;;;;;;;7.50;7.03;;;;;;;11.23;100.00;-9486.50;5113539;28;20183;-66
2022/10/07 02:04:11;;;;;;;7.37;6.63;;;;;;;11.28;100.00;-9168.09;5113856;28;20191;-64
2022/10/07 02:06:43;;;;;;;7.10;6.57;;;;;;;11.29;100.00;-8211.06;5114017;28;20187;-65
2022/10/07 02:09:21;;;;;;;6.67;6.07;;;;;;;11.19;100.00;-6295.44;5113250;28;20201;-64
2022/10/07 02:11:54;;;;;;;6.83;6.37;;;;;;;11.24;100.00;-4699.06;5113249;28;20193;-65
2022/10/07 02:14:25;;;;;;;6.93;6.20;;;;;;;11.24;100.00;-5657.13;5113704;28;20566;-64
2022/10/07 02:16:57;;;;;;;7.13;6.77;;;;;;;11.39;100.00;-5657.72;5113269;28;20670;-64
2022/10/07 02:19:28;;;;;;;12.53;6.67;;;;;;;11.47;100.00;-5977.44;5115734;27;20198;-64
2022/10/07 02:21:58;;;;;;;7.03;6.27;;;;;;;11.33;100.00;-5976.84;5133671;27;20187;-64
2022/10/07 02:24:28;;;;;;;9.63;6.80;;;;;;;11.18;100.00;-4379.50;5133229;27;20229;-65
2022/10/07 02:26:57;;;;;;;7.27;6.53;;;;;;;11.23;100.00;-4060.16;5133539;27;20186;-65
2022/10/07 02:29:30;;;;;;;6.47;6.07;;;;;;;11.14;100.00;-3740.59;5133843;27;20654;-64
2022/10/07 02:32:00;;;;;;;6.90;6.23;;;;;;;11.20;100.00;-4060.13;5133240;27;20274;-65
2022/10/07 02:34:28;;;;;;;6.70;6.30;;;;;;;11.18;100.00;-4060.09;5133443;27;20561;-65
2022/10/07 02:37:01;;;;;;;7.97;6.50;;;;;;;11.23;100.00;-5337.78;5133195;27;20210;-65
2022/10/07 02:39:29;;;;;;;6.90;6.37;;;;;;;11.32;100.00;-6296.06;5133379;27;20183;-65
2022/10/07 02:42:03;;;;;;;7.03;6.60;;;;;;;11.40;100.00;-7254.34;5133563;27;20190;-65
2022/10/07 02:44:39;;;;;;;7.87;7.10;;;;;;;11.45;100.00;-6935.41;5133608;27;20182;-64
2022/10/07 02:47:14;;;;;;;7.13;6.50;;;;;;;11.49;100.00;-6296.94;5133480;27;20304;-66
2022/10/07 02:49:44;;;;;;;10.33;7.40;;;;;;;11.38;100.00;-4699.38;5132843;27;20182;-65
2022/10/07 02:52:14;;;;;;;7.30;6.73;;;;;;;11.02;100.00;-5337.03;5133378;27;20187;-64
2022/10/07 02:54:46;;;;;;;10.70;6.23;;;;;;;11.05;100.00;-7890.13;5134030;27;20553;-65
2022/10/07 02:57:19;;;;;;;13.53;6.50;;;;;;;11.18;100.00;-8848.16;5132829;27;20199;-65
2022/10/07 02:59:51;;;;;;;8.03;7.03;;;;;;;11.27;100.00;-8848.94;5133230;28;20639;-65
2022/10/07 03:02:23;;;;;;;9.07;7.10;;;;;;;11.20;100.00;-8529.31;5133153;28;20189;-65
2022/10/07 03:04:50;;;;;;;8.87;6.60;;;;;;;11.14;100.00;-7571.75;5132911;28;20179;-65
2022/10/07 03:07:17;;;;;;;7.07;6.43;;;;;;;11.01;100.00;-7570.81;5133238;28;20189;-65
2022/10/07 03:09:44;;;;;;;7.43;6.57;;;;;;;10.91;100.00;-7570.16;5132718;28;20182;-64
2022/10/07 03:12:11;;;;;;;7.17;6.47;;;;;;;11.08;100.00;-7890.31;5133029;28;20209;-64
2022/10/07 03:14:38;;;;;;;8.60;7.03;;;;;;;11.01;100.00;-7570.81;5133169;28;20240;-65
2022/10/07 03:17:07;;;;;;;6.97;6.43;;;;;;;11.06;100.00;-7571.16;5132729;28;20213;-64
2022/10/07 03:19:33;;;;;;;9.50;6.50;;;;;;;11.08;100.00;-7252.22;5132901;28;20767;-65
2022/10/07 03:22:01;;;;;;;6.33;5.90;;;;;;;11.21;100.00;-7253.09;5133043;27;20613;-65
2022/10/07 03:24:28;;;;;;;10.23;6.80;;;;;;;11.26;100.00;-6934.25;5136458;27;20233;-66
2022/10/07 03:26:55;;;;;;;5.60;5.40;;;;;;;11.30;100.00;-7572.88;5137293;27;20178;-65
2022/10/07 03:29:24;;;;;;;6.50;6.00;;;;;;;11.32;100.00;-7892.13;5136807;27;20679;-64
2022/10/07 03:31:54;;;;;;;10.40;5.87;;;;;;;11.53;100.00;-6935.84;5137182;27;20274;-65
2022/10/07 03:34:22;;;;;;;17.80;7.27;;;;;;;11.61;100.00;-4699.94;5137207;27;20622;-64
2022/10/07 03:36:49;;;;;;;14.57;6.70;;;;;;;11.40;100.00;-3740.81;5136329;27;20202;-65
2022/10/07 03:39:16;;;;;;;9.80;6.83;;;;;;;11.43;100.00;-3421.22;5119158;27;20201;-66
2022/10/07 03:41:43;;;;;;;23.40;7.33;;;;;;;11.43;100.00;-3101.59;5137183;27;20655;-64
2022/10/07 03:44:10;;;;;;;13.30;6.47;;;;;;;11.39;100.00;-4060.38;5136300;27;20659;-64
2022/10/07 03:46:36;;;;;;;8.47;6.70;;;;;;;11.19;100.00;-4060.09;5136360;27;20183;-65
2022/10/07 03:49:03;;;;;;;15.70;7.07;;;;;;;11.26;100.00;-3421.19;5136874;27;20191;-64
2022/10/07 03:51:32;;;;;;;8.67;6.60;;;;;;;11.21;100.00;-3101.63;5136598;27;20178;-65
2022/10/07 03:53:59;;;;;;;7.93;6.37;;;;;;;11.22;100.00;-2782.06;5136841;27;20633;-64
2022/10/07 03:56:26;;;;;;;11.43;7.03;;;;;;;11.23;100.00;-2782.06;5136852;27;20576;-65
2022/10/07 03:58:54;;;;;;;6.37;5.97;;;;;;;11.12;100.00;-2143.00;5136482;27;20203;-65
2022/10/07 04:01:21;;;;;;;7.97;6.20;;;;;;;11.19;100.00;-1823.22;5136717;27;20221;-66
2022/10/07 04:03:48;;;;;;;14.10;6.50;;;;;;;11.21;100.00;-864.03;5136143;27;20179;-64
2022/10/07 04:06:15;;;;;;;5.67;5.37;;;;;;;11.23;100.00;-1503.44;5136284;27;20189;-65
2022/10/07 04:08:43;;;;;;;10.63;5.47;;;;;;;11.31;100.00;-1183.44;5135885;27;20191;-64
2022/10/07 04:11:10;;;;;;;10.23;6.93;;;;;;;11.33;100.00;-1183.38;5136344;27;20215;-64
2022/10/07 04:13:38;;;;;;;13.07;6.97;;;;;;;11.35;100.00;-223.75;5136507;27;20557;-64
2022/10/07 04:16:07;;;;;;;11.20;6.87;;;;;;;11.49;100.00;-223.13;5135909;27;20226;-65
2022/10/07 04:18:34;;;;;;;21.60;7.30;;;;;;;11.61;100.00;97.53;5136005;27;20210;-63
2022/10/07 04:21:01;;;;;;;17.43;7.73;;;;;;;11.68;100.00;1698.78;5135960;27;20724;-64
2022/10/07 04:23:29;;;;;;;10.37;6.30;;;;;;;11.70;100.00;3941.66;5135576;27;20191;-62
2022/10/07 04:25:57;;;;;;;10.53;6.47;;;;;;;11.56;100.00;5542.47;5135270;27;20191;-61
2022/10/07 04:28:25;;;;;;;17.83;9.37;;;;;;;11.68;100.00;5864.84;5135671;27;20183;-62
2022/10/07 04:30:53;;;;;;;18.20;6.97;;;;;;;11.67;100.00;6185.28;5135544;27;20183;-62
2022/10/07 04:33:21;;;;;;;24.07;7.30;;;;;;;11.62;100.00;6826.00;5135559;27;20639;-61
2022/10/07 04:35:49;;;;;;;12.07;7.40;;;;;;;11.69;100.00;4261.97;5133631;27;20193;-62
2022/10/07 04:38:18;;;;;;;15.80;7.00;;;;;;;11.79;100.00;6187.13;5135134;27;20202;-62
2022/10/07 04:40:46;;;;;;;11.47;6.40;;;;;;;11.91;100.00;8756.50;5135412;27;20186;-62
2022/10/07 04:43:19;;;;;;;7.67;6.10;;;;;;;12.03;100.00;9401.16;5135320;27;20190;-61
2022/10/07 04:45:46;;;;;;;13.43;7.77;;;;;;;12.26;100.00;11655.81;5135000;27;20186;-62
2022/10/07 04:48:16;;;;;;;21.87;7.90;;;;;;;12.82;100.00;13278.81;5134875;27;20189;-62
2022/10/07 04:50:44;;;;;;;10.10;6.93;;;;;;;13.37;100.00;29769.28;5135250;27;20625;-62
2022/10/07 04:53:14;;;;;;;11.13;6.83;;;;;;;13.72;100.00;63986.50;5134761;27;20189;-63
2022/10/07 04:55:43;;;;;;;16.33;7.17;;;;;;;13.99;100.00;93948.75;5135198;27;20259;-62
2022/10/07 04:58:10;;;;;;;10.40;6.50;;;;;;;14.24;100.00;109223.16;5134998;27;20214;-62
2022/10/07 05:00:43;;;;;;;10.57;6.83;;;;;;;14.46;100.00;120906.63;5134991;27;20179;-62
2022/10/07 05:03:11;;;;;;;28.03;7.83;;;;;;;14.76;100.00;143061.03;5134695;27;20243;-63
2022/10/07 05:05:40;;;;;;;12.03;6.27;;;;;;;15.11;100.00;148577.50;5134644;27;20186;-62
2022/10/07 05:08:07;;;;;;;7.13;6.47;;;;;;;15.75;100.00;149995.50;5134743;27;20175;-60
2022/10/07 05:10:37;;;;;;;14.00;7.43;;;;;;;16.12;100.00;150088.22;5134873;27;20236;-58
2022/10/07 05:13:04;;;;;;;8.87;6.47;;;;;;;16.29;100.00;150132.66;5134972;27;20187;-56
2022/10/07 05:15:31;;;;;;;9.47;6.03;;;;;;;16.53;100.00;150191.03;5134519;27;20186;-60
2022/10/07 05:18:00;;;;;;;6.90;6.23;;;;;;;16.89;100.00;150283.78;5134497;27;20210;-62
2022/10/07 05:20:27;;;;;;;9.03;6.83;;;;;;;16.89;100.00;150283.78;5134270;27;20230;-62
2022/10/07 05:22:54;;;;;;;9.83;6.70;;;;;;;16.82;100.00;150266.00;5134510;27;20183;-63
2022/10/07 05:25:21;;;;;;;6.63;6.03;;;;;;;17.06;100.00;150324.47;5134657;27;20557;-63
2022/10/07 05:27:52;;;;;;;7.23;6.43;;;;;;;17.35;100.00;150398.16;5116292;27;20265;-62
2022/10/07 05:30:20;;;;;;;20.10;7.53;;;;;;;17.45;100.00;150423.53;5134237;27;20230;-62
2022/10/07 05:32:47;;;;;;;11.83;6.30;;;;;;;17.87;100.00;150527.78;5134068;27;20246;-62
2022/10/07 05:35:15;;;;;;;6.37;5.87;;;;;;;18.17;100.00;150604.06;5134023;27;20182;-62
2022/10/07 05:37:42;;;;;;;10.00;6.47;;;;;;;18.15;100.00;150599.00;5133872;27;20213;-62
2022/10/07 05:40:10;;;;;;;11.80;7.13;;;;;;;18.07;100.00;150579.94;5134197;27;20569;-63
2022/10/07 05:42:37;;;;;;;8.80;7.03;;;;;;;18.18;100.00;150606.63;5134173;27;20187;-63
2022/10/07 05:45:04;;;;;;;16.93;7.30;;;;;;;18.34;100.00;150647.31;5134046;27;20186;-63
2022/10/07 05:47:33;;;;;;;12.33;7.10;;;;;;;18.46;100.00;150677.81;5133522;27;20187;-63
2022/10/07 05:50:00;;;;;;;14.60;7.30;;;;;;;18.53;100.00;150694.44;5133496;27;20227;-62
2022/10/07 05:52:29;;;;;;;14.60;6.87;;;;;;;18.86;100.00;150778.38;5133686;27;20571;-62
2022/10/07 05:54:57;;;;;;;10.43;5.60;;;;;;;18.97;100.00;150806.34;5133348;27;20182;-64
2022/10/07 05:57:24;;;;;;;5.63;5.17;;;;;;;18.95;100.00;150800.00;5133335;27;20232;-63
2022/10/07 05:59:51;;;;;;;14.33;5.40;;;;;;;19.32;100.00;150894.13;5133495;27;20277;-63
2022/10/07 06:02:19;;;;;;;13.10;6.07;;;;;;;19.28;100.00;150882.69;5133406;27;20183;-63
2022/10/07 06:04:48;;;;;;;9.57;5.47;;;;;;;19.63;100.00;150970.53;5133615;27;20323;-64
2022/10/07 06:07:15;;;;;;;6.23;5.67;;;;;;;19.69;100.00;150987.06;5133513;27;20266;-62
2022/10/07 06:15:16;;;;;;;16.03;6.67;;;;;;;20.13;100.00;151097.84;5133216;27;20194;-63
2022/10/07 06:17:44;;;;;;;8.80;6.57;;;;;;;20.41;100.00;151169.19;5132862;27;20213;-62
2022/10/07 06:20:13;;;;;;;17.08;6.22;;;;;;;20.79;100.00;151264.69;5132409;27;20734;-64
2022/10/07 06:22:39;;;;;;;12.02;5.55;;;;;;;21.29;100.00;151389.63;5132919;27;20277;-62
2022/10/07 06:25:10;;;;;;;12.32;5.85;;;;;;;20.93;100.00;151300.38;5133580;27;20201;-64
2022/10/07 06:27:37;;;;;;;12.55;5.30;;;;;;;21.16;100.00;151356.50;5133161;27;20664;-63
2022/10/07 06:30:04;;;;;;;15.10;5.45;;;;;;;21.33;100.00;151401.09;5133097;27;20217;-64
2022/10/07 06:32:34;;;;;;;5.25;3.70;;;;;;;21.33;100.00;151401.09;5132966;27;20651;-64
2022/10/07 06:35:00;;;;;;;9.50;3.50;;;;;;;21.33;100.00;151401.09;5132672;27;20194;-63
2022/10/07 06:37:30;;;;;;;6.75;4.05;;;;;;;21.24;100.00;151376.88;5132700;27;20183;-63
2022/10/07 06:39:57;;;;;;;7.78;5.18;;;;;;;20.98;100.00;151311.84;5133094;27;20718;-63
2022/10/07 06:42:26;;;;;;;6.15;5.07;;;;;;;21.14;100.00;151352.66;5133078;27;20626;-62
2022/10/07 06:44:53;;;;;;;5.40;5.00;;;;;;;21.11;100.00;151344.97;5132551;27;20182;-62
2022/10/07 06:47:21;;;;;;;19.00;4.68;;;;;;;20.78;100.00;151262.19;5132908;27;20186;-63
2022/10/07 06:49:48;;;;;;;2.63;2.40;;;;;;;21.05;100.00;151329.66;5132571;27;20269;-63
2022/10/07 06:52:17;;;;;;;2.03;1.55;;;;;;;20.39;100.00;151162.81;5132585;27;20190;-64
2022/10/07 06:54:44;;;;;;;5.20;1.80;;;;;;;20.58;100.00;151209.97;5133142;27;20584;-62
2022/10/07 06:57:11;;;;;;;1.55;1.50;;;;;;;20.72;100.00;151246.88;5132080;27;20201;-64
2022/10/07 06:59:39;;;;;;;3.42;1.80;;;;;;;21.01;100.00;151319.47;5132184;27;20263;-63
2022/10/07 07:02:07;;;;;;;6.93;2.22;;;;;;;21.07;100.00;151334.78;5132922;28;20557;-63
2022/10/07 07:04:35;;;;;;;4.85;1.77;;;;;;;21.22;100.00;151373.03;5132887;28;20259;-64
2022/10/07 07:07:02;;;;;;;2.92;2.60;;;;;;;20.92;100.00;151296.53;5132463;28;20183;-63
2022/10/07 07:09:32;;;;;;;1.77;1.67;;;;;;;20.54;100.00;151199.78;5132691;28;20602;-64
2022/10/07 07:11:59;;;;;;;3.47;2.05;;;;;;;20.55;100.00;151202.28;5132355;28;20183;-64
2022/10/07 07:14:33;;;;;;;4.20;1.70;;;;;;;20.78;100.00;151260.91;5132892;28;20179;-63
2022/10/07 07:17:01;;;;;;;2.13;1.55;;;;;;;21.07;100.00;151333.50;5132340;28;20277;-63
2022/10/07 07:19:28;;;;;;;2.30;1.65;;;;;;;21.05;100.00;151329.66;5132185;28;20609;-63
2022/10/07 07:21:56;;;;;;;2.50;1.70;;;;;;;21.12;100.00;151346.25;5132690;28;20182;-64
2022/10/07 07:24:23;;;;;;;4.22;1.95;;;;;;;21.15;100.00;151355.22;5107224;28;20574;-63
2022/10/07 07:26:50;;;;;;;3.90;2.00;;;;;;;21.35;100.00;151404.91;5119837;28;20558;-64
2022/10/07 07:29:17;;;;;;;1.88;1.63;;;;;;;21.57;100.00;151459.69;5112098;28;20640;-64
2022/10/07 07:31:49;;;;;;;1.63;1.52;;;;;;;21.86;100.00;151534.91;5112451;28;20236;-63
2022/10/07 07:34:35;;;;;;;;;;;;;;;;;;;;;
2022/10/07 07:37:13;;;;;;;4.85;1.88;;;;;;;22.08;100.00;151589.78;5110272;28;20580;-63
2022/10/07 07:39:41;;;;;;;2.08;1.98;;;;;;;22.20;100.00;151620.38;5113149;28;20229;-64
2022/10/07 07:42:11;;;;;;;1.80;1.67;;;;;;;22.35;94.07;151657.38;5127485;28;20725;-63
2022/10/07 07:44:39;;;;;;;4.78;1.80;;;;;;;22.14;94.77;151603.81;5112074;28;20187;-63
2022/10/07 07:47:07;;;;;;;1.98;1.88;;;;;;;22.14;92.63;151605.09;5112264;28;20221;-63
2022/10/07 07:49:35;;;;;;;4.22;2.53;;;;;;;22.48;91.29;151689.25;5112368;28;20630;-63
2022/10/07 07:52:03;;;;;;;1.92;1.67;;;;;;;22.69;94.33;151742.84;5111405;28;20184;-62
2022/10/07 07:54:30;;;;;;;3.13;1.88;;;;;;;23.16;89.19;151862.78;5111641;28;20243;-65
2022/10/07 07:56:57;;;;;;;5.70;1.88;;;;;;;23.63;82.54;151980.22;5111504;28;20184;-64
2022/10/07 07:59:25;;;;;;;2.67;1.60;;;;;;;23.08;87.21;151842.38;5111617;28;20667;-63
2022/10/07 08:01:52;;;;;;;4.18;2.13;;;;;;;23.51;82.96;151950.84;5111356;28;20188;-67
2022/10/07 08:04:19;;;;;;;2.10;1.90;;;;;;;23.73;79.44;152004.44;5111422;28;20195;-64
2022/10/07 08:06:48;;;;;;;3.15;1.67;;;;;;;23.81;79.83;152026.13;5111342;28;20225;-65
2022/10/07 08:09:15;;;;;;;2.58;1.70;;;;;;;24.20;80.54;152124.50;5112571;28;20187;-65
2022/10/07 08:11:44;;;;;;;1.90;1.80;;;;;;;24.68;75.32;152245.81;5115196;28;20694;-65
2022/10/07 08:14:12;;;;;;;4.15;2.08;;;;;;;25.56;74.98;152468.19;5115132;28;20190;-65
2022/10/07 08:16:39;;;;;;;1.83;1.73;;;;;;;26.08;66.91;152599.84;5115149;28;20186;-66
2022/10/07 08:19:06;;;;;;;4.10;2.40;;;;;;;26.61;65.05;152732.84;5114955;28;20219;-66
2022/10/07 08:21:33;;;;;;;2.00;1.77;;;;;;;27.27;62.68;152900.47;5121830;27;20584;-66
2022/10/07 08:24:04;;;;;;;2.13;1.90;;;;;;;27.71;56.70;153013.09;5130835;27;20214;-64
2022/10/07 08:26:34;;;;;;;3.38;2.10;;;;;;;28.48;55.08;153207.69;5137230;27;20205;-66
2022/10/07 08:29:01;;;;;;;1.65;1.55;;;;;;;29.23;51.14;153397.28;5137355;27;20186;-67
2022/10/07 08:31:29;;;;;;;1.92;1.50;;;;;;;28.03;50.72;153092.47;5137522;27;20500;-68
2022/10/07 08:33:57;;;;;;;1.63;1.00;;;;;;;28.19;51.13;153133.44;5137078;27;20237;-66
2022/10/07 08:36:26;;;;;;;4.30;1.77;;;;;;;29.00;47.51;153338.38;5137275;27;20646;-67
2022/10/07 08:38:53;;;;;;;4.68;1.50;;;;;;;28.84;49.20;153297.38;5133077;27;20199;-66
2022/10/07 08:41:35;;;;;;;5.75;1.90;;;;;;;27.87;49.40;153051.50;5135742;27;20232;-65
2022/10/07 08:44:16;;;;;;;2.13;2.03;;;;;;;28.35;51.49;153174.41;5133578;27;20187;-66
2022/10/07 08:46:52;;;;;;;2.78;2.20;;;;;;;28.87;48.03;153305.06;5133957;27;20183;-66
2022/10/07 08:49:27;;;;;;;2.97;1.80;;;;;;;29.56;43.87;153479.31;5135308;27;20182;-66
2022/10/07 08:52:01;;;;;;;1.98;1.80;;;;;;;28.81;44.80;153289.72;5135663;27;20182;-66
2022/10/07 08:54:30;;;;;;;2.13;1.73;;;;;;;28.14;47.27;153121.94;5134743;27;20190;-65
2022/10/07 08:57:08;;;;;;;1.90;1.80;;;;;;;27.55;48.44;152972.16;5117084;27;20193;-65
2022/10/07 08:59:39;;;;;;;2.90;1.77;;;;;;;28.11;49.57;153114.25;5134999;27;20209;-65
2022/10/07 09:02:23;;;;;;;1.55;1.50;;;;;;;28.87;48.03;153305.06;5135294;27;20187;-67
2022/10/07 09:04:56;;;;;;;2.65;2.20;;;;;;;29.80;47.76;153540.78;5133911;27;20369;-65
2022/10/07 09:07:32;;;;;;;9.07;8.57;;;;;;;30.88;43.89;153815.19;5135528;27;20290;-66
2022/10/07 09:10:04;;;;;;;2.60;2.40;;;;;;;31.17;42.39;153888.31;5135070;27;20631;-67
2022/10/07 09:12:38;;;;;;;4.70;1.55;;;;;;;31.10;39.69;153870.41;5140395;27;20191;-66
2022/10/07 09:15:16;;;;;;;2.67;1.67;;;;;;;29.55;39.91;153476.75;5136245;27;20480;-66
2022/10/07 09:17:52;;;;;;;3.35;1.50;;;;;;;29.15;39.93;153376.81;5144244;27;20182;-67
2022/10/07 09:20:24;;;;;;;4.78;1.70;;;;;;;27.86;43.73;153048.94;5145440;27;20225;-67
2022/10/07 09:22:56;;;;;;;2.30;1.20;;;;;;;27.57;44.38;152976.00;5141719;27;20190;-67
2022/10/07 09:25:24;;;;;;;5.88;1.48;;;;;;;28.48;45.33;153206.41;5138546;27;20237;-66
2022/10/07 09:27:53;;;;;;;5.30;2.63;;;;;;;29.37;41.77;153433.19;5139605;27;20281;-66
2022/10/07 09:30:21;;;;;;;1.35;1.35;;;;;;;27.98;43.19;153079.66;5134635;27;20179;-67
2022/10/07 09:32:53;;;;;;;3.17;1.65;;;;;;;28.04;44.11;153095.03;5141379;27;20183;-65
2022/10/07 09:35:22;;;;;;;2.72;1.60;;;;;;;27.92;43.93;153064.31;5137041;27;20214;-64
2022/10/07 09:37:57;;;;;;;2.05;1.40;;;;;;;28.80;42.68;153287.16;5139138;27;20282;-66
2022/10/07 09:43:50;;;;;;;3.40;1.60;;;;;;;28.69;42.49;153258.91;5118086;28;20195;-66
2022/10/07 09:46:30;;;;;;;1.70;1.40;;;;;;;28.75;40.76;153274.34;5120959;28;20250;-66
2022/10/07 09:49:00;;;;;;;1.73;1.48;;;;;;;27.10;41.32;152856.97;5121317;28;20187;-66
2022/10/07 09:51:28;;;;;;;2.22;1.60;;;;;;;27.15;43.56;152871.06;5122385;28;20200;-66
2022/10/07 09:53:57;;;;;;;1.45;1.33;;;;;;;28.34;41.29;153171.88;5121634;28;20184;-68
2022/10/07 09:56:34;;;;;;;2.72;1.42;;;;;;;29.05;40.50;153351.19;5119957;28;20198;-65
2022/10/07 09:59:20;;;;;;;2.65;1.48;;;;;;;28.92;39.60;153319.16;5113701;28;20199;-66
2022/10/07 10:01:52;;;;;;;1.48;1.30;;;;;;;28.35;40.54;153174.41;5113576;28;20190;-66
2022/10/07 10:04:23;;;;;;;1.45;1.35;;;;;;;28.63;40.31;153244.84;5114169;28;20599;-67
2022/10/07 10:06:51;;;;;;;2.90;1.60;;;;;;;28.68;39.49;153256.38;5114850;28;20179;-65
2022/10/07 10:09:21;;;;;;;1.40;1.40;;;;;;;27.42;40.93;152938.84;5117403;28;20190;-65
2022/10/07 10:12:02;;;;;;;2.17;1.60;;;;;;;27.91;39.42;153061.75;5115201;28;20183;-68
2022/10/07 10:14:41;;;;;;;3.53;1.35;;;;;;;29.38;39.71;153434.47;5116077;28;20561;-66
2022/10/07 10:17:21;;;;;;;1.52;1.45;;;;;;;30.69;36.78;153766.47;5113306;28;20179;-66
2022/10/07 10:19:48;;;;;;;2.00;1.80;;;;;;;29.54;37.56;153474.16;5129715;27;20289;-67
2022/10/07 10:22:25;;;;;;;1.33;1.30;;;;;;;28.17;39.85;153128.34;5159882;27;20185;-66
2022/10/07 10:27:45;;;;;;;2.53;1.67;;;;;;;31.63;35.58;154006.38;5160725;27;20177;-66
2022/10/07 10:30:19;;;;;;;1.83;1.73;;;;;;;32.23;33.02;154156.50;5157343;27;20177;-66
2022/10/07 10:33:11;;;;;;;1.77;1.67;;;;;;;31.08;34.34;153866.53;5158537;27;20181;-66
2022/10/07 10:35:46;;;;;;;1.70;1.60;;;;;;;29.93;35.77;153574.16;5161169;27;20245;-66
2022/10/07 10:38:26;;;;;;;3.25;1.73;;;;;;;29.65;35.98;153503.66;5158976;27;20261;-65
2022/10/07 10:41:01;;;;;;;1.70;1.70;;;;;;;30.38;34.61;153689.50;5156575;27;20202;-64
2022/10/07 10:43:36;;;;;;;2.47;1.48;;;;;;;28.56;36.94;153226.88;5156606;27;20193;-64
2022/10/07 10:46:20;;;;;;;1.95;1.75;;;;;;;29.53;36.72;153471.63;5157590;27;20189;-65
2022/10/07 10:48:56;;;;;;;3.55;1.60;;;;;;;30.56;34.81;153733.13;5156253;27;20560;-65
2022/10/07 10:51:38;;;;;;;58.13;5.13;;;;;;;29.52;37.18;153469.06;5156900;27;20193;-65
2022/10/07 10:54:22;;;;;;;1.80;1.70;;;;;;;31.46;35.04;153961.41;5156998;27;20182;-66
2022/10/07 10:56:57;;;;;;;2.60;2.20;;;;;;;32.69;34.21;154273.34;5155739;27;20185;-65
2022/10/07 10:59:43;;;;;;;2.92;1.42;;;;;;;33.19;32.07;154401.75;5144472;27;20210;-65
2022/10/07 11:02:30;;;;;;;2.35;1.77;;;;;;;31.05;33.71;153858.84;5115767;28;20195;-66
2022/10/07 11:05:01;;;;;;;2.10;1.80;;;;;;;29.07;36.07;153356.28;5128221;28;20274;-66
2022/10/07 11:07:34;;;;;;;3.53;2.30;;;;;;;28.59;37.27;153235.91;5115397;28;20237;-65
2022/10/07 11:10:18;;;;;;;2.40;2.30;;;;;;;27.99;38.54;153083.50;5118656;27;20190;-66
2022/10/07 11:12:53;;;;;;;6.30;1.48;;;;;;;27.27;38.63;152901.75;5128885;28;20205;-66
2022/10/07 11:15:25;;;;;;;1.48;1.48;;;;;;;24.90;43.07;152302.09;5134645;28;20220;-65
2022/10/07 11:17:58;;;;;;;2.03;1.92;;;;;;;24.97;44.60;152319.94;5133091;28;20195;-64
2022/10/07 11:20:32;;;;;;;3.05;2.20;;;;;;;24.94;52.70;152311.00;5132407;28;20325;-65
2022/10/07 11:23:03;;;;;;;2.50;1.95;;;;;;;24.43;63.60;152183.25;5131839;28;20182;-64
2022/10/07 11:25:36;;;;;;;2.30;2.10;;;;;;;24.09;71.24;152096.38;5133430;28;20179;-65
2022/10/07 11:28:13;;;;;;;5.60;2.65;;;;;;;23.48;80.59;151943.19;5132465;28;20211;-65
2022/10/07 11:30:48;;;;;;;4.72;2.28;;;;;;;22.91;92.16;151799.00;5134312;28;20193;-63
2022/10/07 11:33:22;;;;;;;3.10;2.90;;;;;;;22.77;96.76;151763.25;5134022;28;20183;-63
2022/10/07 11:35:54;;;;;;;4.10;2.00;;;;;;;22.45;100.00;151682.84;5133666;28;20190;-63
2022/10/07 11:38:24;;;;;;;2.00;1.90;;;;;;;22.17;100.00;151612.72;5133308;28;20681;-63
2022/10/07 11:40:53;;;;;;;4.65;2.20;;;;;;;21.81;100.00;151520.91;5133113;28;20203;-64
2022/10/07 11:43:26;;;;;;;5.13;2.08;;;;;;;21.77;100.00;151511.94;5132989;27;20646;-64
2022/10/07 11:45:59;;;;;;;4.95;1.90;;;;;;;21.68;100.00;151487.75;5136863;27;20189;-63
2022/10/07 11:48:33;;;;;;;1.80;1.70;;;;;;;21.48;100.00;151436.75;5136611;27;20526;-63
2022/10/07 11:51:04;;;;;;;6.22;1.88;;;;;;;21.45;100.00;151430.41;5136535;27;20201;-63
2022/10/07 11:53:34;;;;;;;5.95;2.22;;;;;;;21.41;100.00;151421.50;5136622;27;20289;-62